Time;durP1;ratioP1;P1;durP2;ratioP2;P2;SDS_P1;SDS_P2;PMS_P1;PMS_P2;Temp;Humidity;BMP_temperature;BMP_pressure;BME280_temperature;BME280_humidity;BME280_pressure;Samples;Min_cycle;Max_cycle;Signal;HPM_P1;HPM_P2
2021/07/13 00:01:17;;;;;;;6.32;3.40;;;;;;;19.67;90.79;95802.75;4981370;28;20041;-62
2021/07/13 00:03:43;;;;;;;5.72;2.88;;;;;;;19.70;90.77;95801.06;5001325;28;20042;-60
2021/07/13 00:06:09;;;;;;;5.07;3.03;;;;;;;19.64;91.76;95804.44;4978444;28;20038;-62
2021/07/13 00:08:34;;;;;;;4.57;2.70;;;;;;;19.62;92.21;95809.66;4984279;28;20054;-62
2021/07/13 00:11:00;;;;;;;3.65;2.33;;;;;;;19.65;92.86;95817.09;4984998;28;20042;-63
2021/07/13 00:13:25;;;;;;;4.90;2.53;;;;;;;19.77;91.79;95818.34;4978416;28;20053;-63
2021/07/13 00:15:51;;;;;;;3.97;2.40;;;;;;;20.02;90.08;95820.25;4983539;28;20081;-63
2021/07/13 00:18:16;;;;;;;6.88;3.15;;;;;;;20.24;88.24;95828.59;4979087;28;20076;-62
2021/07/13 00:20:42;;;;;;;5.13;2.33;;;;;;;20.23;88.19;95834.59;4976876;28;20391;-63
2021/07/13 00:23:07;;;;;;;4.93;2.63;;;;;;;20.04;88.91;95826.13;4977468;28;20116;-62
2021/07/13 00:25:34;;;;;;;3.75;2.30;;;;;;;19.91;89.77;95814.25;4966580;28;20224;-65
2021/07/13 00:27:59;;;;;;;7.78;3.25;;;;;;;19.66;91.40;95781.75;4984052;28;20046;-65
2021/07/13 00:30:25;;;;;;;7.90;3.13;;;;;;;19.59;92.27;95777.25;4979595;28;20049;-64
2021/07/13 00:32:51;;;;;;;6.05;2.50;;;;;;;19.73;92.09;95797.41;4984639;28;20047;-64
2021/07/13 00:35:17;;;;;;;5.40;2.80;;;;;;;19.81;92.70;95821.00;4979799;28;20507;-64
2021/07/13 00:37:43;;;;;;;5.38;2.65;;;;;;;19.94;90.80;95852.28;4984566;28;20039;-64
2021/07/13 00:40:12;;;;;;;5.15;2.65;;;;;;;19.93;91.04;95867.38;4978732;28;20518;-64
2021/07/13 00:42:38;;;;;;;7.05;3.17;;;;;;;19.51;93.47;95869.56;4983545;28;20040;-64
2021/07/13 00:45:05;;;;;;;6.18;3.50;;;;;;;19.12;95.39;95882.66;4980185;28;20061;-61
2021/07/13 00:47:32;;;;;;;7.28;3.38;;;;;;;19.02;97.74;95903.97;4983744;28;20797;-63
2021/07/13 00:50:00;;;;;;;5.85;2.97;;;;;;;19.02;96.51;95909.53;4984011;28;20046;-64
2021/07/13 00:52:27;;;;;;;5.93;3.10;;;;;;;19.03;95.32;95911.88;4978904;28;20057;-62
2021/07/13 00:54:52;;;;;;;5.20;2.90;;;;;;;19.07;94.21;95920.09;4984021;28;20058;-63
2021/07/13 00:57:18;;;;;;;7.30;3.20;;;;;;;19.20;92.28;95920.88;4979293;28;20503;-63
2021/07/13 00:59:45;;;;;;;5.43;3.13;;;;;;;19.34;91.87;95938.31;4983854;28;20085;-63
2021/07/13 01:02:12;;;;;;;5.90;3.55;;;;;;;19.20;92.48;95948.63;4978290;28;20103;-62
2021/07/13 01:04:50;;;;;;;7.32;3.83;;;;;;;19.06;93.99;95962.91;4965704;28;20496;-63
2021/07/13 01:07:46;;;;;;;7.75;3.17;;;;;;;19.07;92.84;95972.81;4979001;28;20046;-63
2021/07/13 01:10:45;;;;;;;6.03;2.58;;;;;;;19.08;92.78;95968.81;4978124;28;20447;-61
2021/07/13 01:13:38;;;;;;;6.05;2.70;;;;;;;19.18;91.40;95964.94;4977544;28;20134;-63
2021/07/13 01:16:16;;;;;;;5.32;2.20;;;;;;;18.90;92.75;95969.31;4972466;28;20097;-60
2021/07/13 01:18:51;;;;;;;4.10;2.45;;;;;;;18.66;93.26;95969.53;4974494;28;20042;-63
2021/07/13 01:21:38;;;;;;;3.88;1.80;;;;;;;18.58;92.87;95982.03;4989588;28;20113;-64
2021/07/13 01:24:31;;;;;;;4.22;1.60;;;;;;;18.65;92.94;95981.06;4979383;28;20526;-61
2021/07/13 01:27:02;;;;;;;2.67;1.63;;;;;;;18.61;93.58;95991.50;4983823;28;20562;-64
2021/07/13 01:29:30;;;;;;;4.53;1.55;;;;;;;18.31;93.72;95994.22;4979727;28;20499;-63
2021/07/13 01:31:57;;;;;;;5.55;1.38;;;;;;;18.23;94.06;95998.38;4983777;28;20499;-63
2021/07/13 01:34:34;;;;;;;2.53;1.23;;;;;;;18.00;94.97;95990.25;4976518;28;20068;-62
2021/07/13 01:37:02;;;;;;;3.22;1.38;;;;;;;18.06;95.66;95978.22;4977639;28;20515;-65
2021/07/13 01:39:28;;;;;;;2.25;0.90;;;;;;;18.19;95.46;95986.63;4971335;28;20049;-63
2021/07/13 01:41:58;;;;;;;1.85;1.10;;;;;;;18.04;95.43;95985.41;4974815;28;20050;-62
2021/07/13 01:44:24;;;;;;;2.85;1.50;;;;;;;17.90;97.29;95981.00;4978027;28;20066;-64
2021/07/13 01:46:51;;;;;;;3.50;1.77;;;;;;;18.08;98.00;95977.78;4981110;28;20043;-62
2021/07/13 01:49:19;;;;;;;5.45;1.85;;;;;;;18.10;97.58;95967.06;4974231;28;20050;-63
2021/07/13 01:51:47;;;;;;;2.40;1.27;;;;;;;17.96;96.09;95968.94;4982947;28;20402;-64
2021/07/13 01:54:15;;;;;;;5.57;1.20;;;;;;;17.96;96.81;95968.94;4979177;28;20053;-63
2021/07/13 01:56:41;;;;;;;4.43;1.17;;;;;;;17.95;97.07;95975.72;4973107;28;20042;-65
2021/07/13 01:59:08;;;;;;;4.90;1.65;;;;;;;17.74;97.56;95992.81;4978071;28;20480;-65
2021/07/13 02:01:35;;;;;;;3.53;1.30;;;;;;;17.51;99.39;95982.66;4982506;28;20046;-66
2021/07/13 02:04:03;;;;;;;3.58;1.27;;;;;;;17.67;99.51;95954.97;4981987;28;20038;-64
2021/07/13 02:06:29;;;;;;;3.17;1.15;;;;;;;17.66;97.88;95947.09;4970766;28;20043;-65
2021/07/13 02:08:58;;;;;;;4.20;1.30;;;;;;;17.78;98.37;95938.88;4981940;28;20499;-64
2021/07/13 02:11:26;;;;;;;2.08;1.15;;;;;;;17.78;98.62;95947.19;4973202;28;20580;-65
2021/07/13 02:13:51;;;;;;;2.92;0.90;;;;;;;17.59;99.33;95939.72;4983101;28;20072;-64
2021/07/13 02:16:19;;;;;;;5.45;1.20;;;;;;;17.59;100.00;95931.44;4983370;28;20110;-64
2021/07/13 02:18:45;;;;;;;4.57;1.20;;;;;;;17.45;100.00;95929.00;4990943;28;20136;-64
2021/07/13 02:21:11;;;;;;;5.28;1.45;;;;;;;17.34;100.00;95937.53;4976738;28;20414;-63
2021/07/13 02:23:37;;;;;;;2.08;1.20;;;;;;;17.08;100.00;95931.00;4974757;28;20125;-64
2021/07/13 02:26:04;;;;;;;3.60;1.35;;;;;;;17.11;100.00;95930.94;4972290;28;20452;-61
2021/07/13 02:28:36;;;;;;;5.35;1.02;;;;;;;17.21;100.00;95945.72;4978742;28;20065;-64
2021/07/13 02:31:15;;;;;;;2.13;1.00;;;;;;;17.32;100.00;95940.75;4981388;28;20054;-61
2021/07/13 02:33:55;;;;;;;3.38;1.30;;;;;;;17.22;100.00;95929.94;4977332;28;20459;-64
2021/07/13 02:36:26;;;;;;;3.17;1.17;;;;;;;17.27;100.00;95927.44;4965327;28;20046;-64
2021/07/13 02:38:52;;;;;;;3.53;1.52;;;;;;;17.22;100.00;95927.94;4979592;28;20380;-63
2021/07/13 02:41:18;;;;;;;4.60;1.33;;;;;;;17.20;100.00;95930.34;4973205;28;20042;-63
2021/07/13 02:43:46;;;;;;;9.35;4.85;;;;;;;17.18;100.00;95939.06;4981425;28;20034;-64
2021/07/13 02:46:13;;;;;;;7.03;2.35;;;;;;;17.08;100.00;95931.00;4968041;28;20054;-63
2021/07/13 02:48:40;;;;;;;4.65;1.40;;;;;;;17.12;100.00;95913.09;4977951;28;20043;-62
2021/07/13 02:51:08;;;;;;;3.42;1.27;;;;;;;17.15;100.00;95903.97;4973009;28;20057;-63
2021/07/13 02:53:35;;;;;;;4.18;1.30;;;;;;;17.31;100.00;95910.75;4977478;28;20042;-62
2021/07/13 02:56:05;;;;;;;3.45;1.10;;;;;;;17.39;100.00;95921.22;4977160;28;20381;-63
2021/07/13 02:58:31;;;;;;;3.10;1.35;;;;;;;17.45;100.00;95923.44;4971700;28;20113;-62
2021/07/13 03:00:57;;;;;;;4.65;1.27;;;;;;;17.60;100.00;95910.84;4972987;28;20054;-64
2021/07/13 03:03:23;;;;;;;4.93;1.65;;;;;;;17.44;100.00;95900.53;4958227;28;20892;-63
2021/07/13 03:05:53;;;;;;;5.60;1.70;;;;;;;17.35;100.00;95906.66;4981735;28;20034;-63
2021/07/13 03:08:22;;;;;;;5.22;1.35;;;;;;;17.35;100.00;95898.38;4974930;28;20508;-63
2021/07/13 03:10:49;;;;;;;7.15;1.42;;;;;;;17.42;100.00;95896.66;4974341;28;20411;-62
2021/07/13 03:13:15;;;;;;;3.75;1.33;;;;;;;17.49;100.00;95896.50;4971864;28;20178;-63
2021/07/13 03:15:42;;;;;;;2.00;1.15;;;;;;;17.53;100.00;95888.88;4981477;28;20035;-63
2021/07/13 03:18:08;;;;;;;4.93;1.20;;;;;;;17.36;100.00;95877.78;4969926;28;20508;-63
2021/07/13 03:20:33;;;;;;;4.60;1.60;;;;;;;17.06;100.00;95892.69;4982901;28;20141;-63
2021/07/13 03:23:01;;;;;;;6.35;1.70;;;;;;;17.07;100.00;95902.56;4975023;28;20140;-63
2021/07/13 03:25:33;;;;;;;7.22;1.55;;;;;;;16.91;100.00;95894.22;4973682;28;20649;-59
2021/07/13 03:28:00;;;;;;;4.47;1.77;;;;;;;16.80;100.00;95895.19;4975722;28;20050;-62
2021/07/13 03:30:27;;;;;;;8.68;1.92;;;;;;;16.68;100.00;95892.31;4975280;28;20043;-61
2021/07/13 03:32:54;;;;;;;3.67;1.55;;;;;;;16.71;100.00;95897.78;4980865;28;20043;-63
2021/07/13 03:35:23;;;;;;;4.85;2.00;;;;;;;17.07;100.00;95901.78;4970297;28;20136;-61
2021/07/13 03:37:50;;;;;;;9.77;1.98;;;;;;;17.19;100.00;95903.88;4975963;28;20627;-59
2021/07/13 03:40:18;;;;;;;6.38;1.77;;;;;;;17.14;100.00;95896.88;4976617;28;20057;-61
2021/07/13 03:42:45;;;;;;;16.95;3.38;;;;;;;17.34;100.00;95890.47;4980438;28;20042;-62
2021/07/13 03:45:15;;;;;;;6.40;1.95;;;;;;;17.47;100.00;95890.59;4967532;28;20050;-62
2021/07/13 03:47:51;;;;;;;;;;;;;;;17.50;100.00;95893.28;4967718;28;20616;-62
2021/07/13 03:50:18;;;;;;;4.45;1.60;;;;;;;17.53;100.00;95891.63;4973290;28;19921;-61
2021/07/13 03:52:44;;;;;;;3.30;1.35;;;;;;;17.51;100.00;95888.53;4980436;28;20057;-61
2021/07/13 03:55:11;;;;;;;3.00;1.40;;;;;;;17.40;100.00;95899.84;4965919;28;20043;-62
2021/07/13 03:57:38;;;;;;;3.08;1.27;;;;;;;17.27;100.00;95899.75;4962002;28;20038;-62
2021/07/13 04:00:10;;;;;;;3.95;1.60;;;;;;;17.50;100.00;95907.13;4976305;28;20044;-61
2021/07/13 04:02:36;;;;;;;6.35;1.80;;;;;;;17.60;100.00;95899.78;4975552;28;20052;-62
2021/07/13 04:05:02;;;;;;;2.75;1.40;;;;;;;17.52;100.00;95893.63;4977820;28;20439;-62
2021/07/13 04:07:27;;;;;;;3.33;1.45;;;;;;;17.43;100.00;95890.69;4977963;28;20042;-63
2021/07/13 04:09:53;;;;;;;2.80;1.20;;;;;;;17.44;100.00;95892.22;4971771;28;20471;-63
2021/07/13 04:12:18;;;;;;;8.25;1.67;;;;;;;17.45;100.00;95895.78;4963060;28;20048;-64
2021/07/13 04:14:44;;;;;;;2.38;1.35;;;;;;;17.58;100.00;95900.19;4985394;28;20045;-62
2021/07/13 04:17:10;;;;;;;4.60;1.58;;;;;;;17.73;100.00;95908.94;4970965;28;20523;-64
2021/07/13 04:19:35;;;;;;;3.35;1.40;;;;;;;17.81;100.00;95903.22;4976477;28;20057;-64
2021/07/13 04:22:01;;;;;;;2.53;1.52;;;;;;;17.76;100.00;95902.53;4977649;28;20098;-64
2021/07/13 04:24:26;;;;;;;4.10;1.60;;;;;;;17.88;100.00;95909.41;4969202;28;20050;-63
2021/07/13 04:26:52;;;;;;;4.18;1.25;;;;;;;17.98;100.00;95904.78;4969005;28;20055;-63
2021/07/13 04:29:17;;;;;;;2.95;1.40;;;;;;;18.05;100.00;95909.38;4964168;28;20047;-63
2021/07/13 04:31:43;;;;;;;5.75;1.63;;;;;;;17.94;100.00;95909.66;4983146;28;20077;-63
2021/07/13 04:34:09;;;;;;;3.88;1.33;;;;;;;17.95;100.00;95908.44;4987575;28;20034;-63
2021/07/13 04:36:39;;;;;;;3.45;1.45;;;;;;;18.02;100.00;95911.03;4985203;28;20396;-62
2021/07/13 04:39:06;;;;;;;3.70;1.27;;;;;;;17.93;100.00;95910.84;4978358;28;20076;-62
2021/07/13 04:41:32;;;;;;;5.65;1.60;;;;;;;17.70;100.00;95918.13;4984448;28;20042;-61
2021/07/13 04:43:58;;;;;;;3.47;1.23;;;;;;;17.50;100.00;95915.44;4982722;28;20047;-62
2021/07/13 04:46:23;;;;;;;3.15;1.52;;;;;;;17.71;100.00;95911.34;4978698;28;20058;-63
2021/07/13 04:48:49;;;;;;;4.47;1.55;;;;;;;17.79;100.00;95917.53;4963388;28;20042;-62
2021/07/13 04:51:15;;;;;;;2.45;1.23;;;;;;;17.70;100.00;95912.59;4972970;28;20054;-62
2021/07/13 04:53:41;;;;;;;5.32;1.42;;;;;;;17.46;100.00;95911.19;4978006;28;20038;-62
2021/07/13 04:56:07;;;;;;;2.72;1.30;;;;;;;17.42;100.00;95916.81;4972884;28;20046;-62
2021/07/13 04:58:33;;;;;;;3.67;1.30;;;;;;;17.35;100.00;95941.88;4986212;28;20045;-62
2021/07/13 05:00:58;;;;;;;4.63;1.55;;;;;;;17.18;100.00;95966.75;4979089;28;20081;-62
2021/07/13 05:03:23;;;;;;;3.30;1.10;;;;;;;16.91;100.00;95989.03;4974759;28;20046;-61
2021/07/13 05:05:49;;;;;;;6.15;1.30;;;;;;;16.74;100.00;96001.97;4984804;28;20046;-64
2021/07/13 05:08:14;;;;;;;5.70;2.13;;;;;;;16.56;100.00;96005.06;4971300;28;20208;-63
2021/07/13 05:10:40;;;;;;;5.85;1.52;;;;;;;16.40;100.00;95972.59;4965056;28;20500;-62
2021/07/13 05:13:09;;;;;;;3.38;1.90;;;;;;;16.28;100.00;95984.25;4962330;28;20050;-64
2021/07/13 05:15:36;;;;;;;4.00;1.55;;;;;;;16.12;100.00;95973.09;4977253;28;20046;-64
2021/07/13 05:18:02;;;;;;;3.67;1.02;;;;;;;16.22;100.00;95942.53;4980298;28;20109;-65
2021/07/13 05:20:27;;;;;;;2.47;1.05;;;;;;;16.41;100.00;95946.50;4973659;28;20050;-62
2021/07/13 05:22:58;;;;;;;3.05;1.20;;;;;;;16.26;100.00;95956.28;4966822;28;20057;-64
2021/07/13 05:25:24;;;;;;;2.63;0.93;;;;;;;16.30;100.00;95961.75;4968752;28;20807;-65
2021/07/13 05:27:49;;;;;;;1.65;0.60;;;;;;;16.22;100.00;95967.41;4983021;28;20049;-64
2021/07/13 05:30:17;;;;;;;1.35;0.60;;;;;;;16.25;100.00;95974.06;4972607;28;20055;-63
2021/07/13 05:32:42;;;;;;;1.60;0.60;;;;;;;16.27;100.00;95966.13;4977340;28;20042;-64
2021/07/13 05:35:08;;;;;;;2.72;0.85;;;;;;;16.22;100.00;95978.44;4971703;28;20230;-62
2021/07/13 05:37:34;;;;;;;2.70;0.75;;;;;;;16.13;100.00;95994.75;4985131;28;20046;-65
2021/07/13 05:40:01;;;;;;;3.15;1.30;;;;;;;15.89;100.00;96020.81;4985627;28;20046;-65
2021/07/13 05:42:27;;;;;;;1.23;0.50;;;;;;;15.48;100.00;96028.06;4978510;28;20081;-63
2021/07/13 05:44:52;;;;;;;1.10;0.40;;;;;;;15.24;100.00;95999.63;4973471;28;20066;-64
2021/07/13 05:47:18;;;;;;;1.75;0.65;;;;;;;15.18;100.00;96002.06;4973934;28;20438;-65
2021/07/13 05:49:43;;;;;;;2.58;0.43;;;;;;;14.95;100.00;95997.22;4981557;28;20065;-64
2021/07/13 05:52:09;;;;;;;1.00;0.50;;;;;;;14.79;100.00;95986.78;4973890;28;20051;-64
2021/07/13 05:54:34;;;;;;;0.55;0.40;;;;;;;14.84;100.00;95972.53;4974777;28;20046;-65
2021/07/13 05:57:00;;;;;;;0.20;0.20;;;;;;;14.72;100.00;95978.59;4963236;28;20050;-65
2021/07/13 05:59:26;;;;;;;0.63;0.20;;;;;;;14.69;100.00;95984.91;4980981;28;20042;-65
2021/07/13 06:01:52;;;;;;;1.42;0.50;;;;;;;14.75;100.00;95994.31;4981329;28;20137;-65
2021/07/13 06:04:17;;;;;;;1.52;0.30;;;;;;;14.74;100.00;95994.72;4975364;28;20125;-64
2021/07/13 06:06:42;;;;;;;0.60;0.22;;;;;;;14.65;100.00;95997.97;4983572;28;20080;-66
2021/07/13 06:09:08;;;;;;;0.85;0.30;;;;;;;14.57;100.00;96029.50;4976436;28;20491;-64
2021/07/13 06:11:33;;;;;;;4.72;2.55;;;;;;;14.68;100.00;96031.00;4977528;28;20038;-64
2021/07/13 06:13:59;;;;;;;3.13;0.40;;;;;;;14.86;100.00;96017.03;4978798;28;20070;-64
2021/07/13 06:16:24;;;;;;;0.30;0.22;;;;;;;14.94;100.00;96037.00;4974975;28;20066;-63
2021/07/13 06:18:50;;;;;;;0.40;0.20;;;;;;;14.95;100.00;96041.34;4983583;28;20100;-63
2021/07/13 06:21:15;;;;;;;0.50;0.30;;;;;;;14.96;100.00;96050.38;4970812;28;20404;-63
2021/07/13 06:23:40;;;;;;;0.20;0.20;;;;;;;15.13;100.00;96038.38;4980551;28;20038;-64
2021/07/13 06:26:06;;;;;;;0.20;0.20;;;;;;;15.11;100.00;96046.28;4971220;28;20755;-62
2021/07/13 06:28:31;;;;;;;0.40;0.28;;;;;;;15.46;100.00;96047.78;4973152;28;20042;-63
2021/07/13 06:30:57;;;;;;;0.30;0.30;;;;;;;15.50;99.17;96045.00;4980487;28;20057;-63
2021/07/13 06:33:22;;;;;;;0.35;0.30;;;;;;;15.62;100.00;96041.66;4985891;28;20042;-63
2021/07/13 06:35:48;;;;;;;1.27;0.30;;;;;;;15.29;99.20;96033.03;4974005;28;20046;-62
2021/07/13 06:38:14;;;;;;;0.80;0.30;;;;;;;15.46;100.00;96038.75;4973943;28;20153;-62
2021/07/13 06:40:39;;;;;;;0.30;0.30;;;;;;;15.12;98.50;96014.75;4978526;28;20034;-63
2021/07/13 06:43:05;;;;;;;1.00;0.63;;;;;;;15.08;99.55;96025.03;4975013;28;20046;-61
2021/07/13 06:45:30;;;;;;;1.85;0.70;;;;;;;15.04;98.45;96016.81;4978057;28;20047;-64
2021/07/13 06:47:56;;;;;;;1.58;0.40;;;;;;;15.09;100.00;96027.38;4981934;28;20042;-63
2021/07/13 06:50:23;;;;;;;0.50;0.40;;;;;;;15.13;100.00;96032.09;4979564;28;20063;-62
2021/07/13 06:52:49;;;;;;;0.35;0.32;;;;;;;14.99;99.21;96035.78;4967859;28;20146;-62
2021/07/13 06:55:14;;;;;;;1.65;0.22;;;;;;;14.97;99.98;96057.47;4974018;28;20183;-63
2021/07/13 06:57:40;;;;;;;0.88;0.30;;;;;;;15.03;99.06;96040.06;4983694;28;20512;-63
2021/07/13 07:00:07;;;;;;;0.38;0.20;;;;;;;14.92;99.56;96039.41;4976415;28;20085;-63
2021/07/13 07:02:33;;;;;;;1.65;0.30;;;;;;;14.94;99.85;96039.75;4973086;28;20156;-62
2021/07/13 07:04:58;;;;;;;0.75;0.50;;;;;;;14.83;98.06;96042.66;4975649;28;20626;-65
2021/07/13 07:07:23;;;;;;;1.23;0.60;;;;;;;14.88;100.00;96055.22;4969136;28;20054;-64
2021/07/13 07:09:49;;;;;;;1.75;0.70;;;;;;;14.87;100.00;96059.94;4982626;28;20116;-64
2021/07/13 07:12:14;;;;;;;3.33;0.30;;;;;;;15.06;100.00;96063.28;4952702;28;20118;-64
2021/07/13 07:14:39;;;;;;;0.57;0.32;;;;;;;14.98;97.13;96070.06;4962390;28;20050;-63
2021/07/13 07:17:05;;;;;;;2.65;0.30;;;;;;;14.59;98.72;96096.06;4976907;28;20042;-62
2021/07/13 07:19:30;;;;;;;0.43;0.35;;;;;;;14.58;100.00;96106.28;4981514;28;20129;-64
2021/07/13 07:21:55;;;;;;;0.70;0.40;;;;;;;14.63;100.00;96113.34;4981452;28;20451;-64
2021/07/13 07:24:21;;;;;;;0.95;0.40;;;;;;;14.43;100.00;96105.59;4967380;28;20697;-65
2021/07/13 07:26:47;;;;;;;2.47;0.47;;;;;;;14.34;100.00;96100.56;4980564;28;20096;-64
2021/07/13 07:29:12;;;;;;;1.80;0.68;;;;;;;14.41;100.00;96087.94;4964883;28;20039;-64
2021/07/13 07:31:37;;;;;;;1.75;0.60;;;;;;;14.25;100.00;96088.44;4979969;28;20077;-65
2021/07/13 07:34:03;;;;;;;1.10;0.43;;;;;;;14.49;100.00;96089.41;4977631;28;20133;-61
2021/07/13 07:36:29;;;;;;;0.98;0.57;;;;;;;14.55;100.00;96093.31;4977959;28;20531;-64
2021/07/13 07:38:55;;;;;;;1.85;0.50;;;;;;;14.61;100.00;96099.97;4980427;28;20391;-64
2021/07/13 07:41:21;;;;;;;1.20;0.60;;;;;;;14.59;99.95;96113.38;4974557;28;20575;-64
2021/07/13 07:43:48;;;;;;;1.17;0.70;;;;;;;14.62;100.00;96114.53;4979680;28;20134;-63
2021/07/13 07:46:14;;;;;;;0.93;0.52;;;;;;;14.55;99.78;96123.63;4970603;28;20443;-64
2021/07/13 07:48:39;;;;;;;0.70;0.50;;;;;;;14.50;100.00;96124.06;4980993;28;20038;-63
2021/07/13 07:51:04;;;;;;;3.10;1.58;;;;;;;14.23;99.85;96127.41;4968918;28;20393;-60
2021/07/13 07:53:30;;;;;;;1.30;0.82;;;;;;;14.14;100.00;96157.38;4979588;28;20550;-63
2021/07/13 07:55:56;;;;;;;1.38;0.80;;;;;;;14.03;100.00;96140.13;4980703;28;20150;-64
2021/07/13 07:58:22;;;;;;;1.08;0.80;;;;;;;14.00;100.00;96113.41;4965278;28;20126;-65
2021/07/13 08:00:48;;;;;;;1.40;0.60;;;;;;;14.06;100.00;96103.53;4980690;28;20484;-65
2021/07/13 08:03:13;;;;;;;1.92;0.88;;;;;;;14.02;100.00;96095.28;4983197;28;20038;-64
2021/07/13 08:05:40;;;;;;;1.45;0.80;;;;;;;13.99;100.00;96100.81;4984114;28;20039;-63
2021/07/13 08:08:07;;;;;;;2.45;0.50;;;;;;;13.86;100.00;96142.56;4973991;28;20066;-62
2021/07/13 08:10:32;;;;;;;3.10;0.65;;;;;;;13.85;100.00;96206.31;4983846;28;20129;-64
2021/07/13 08:12:59;;;;;;;1.00;0.60;;;;;;;13.82;100.00;96229.13;4983826;28;20472;-64
2021/07/13 08:15:26;;;;;;;2.22;0.77;;;;;;;13.66;100.00;96235.06;4973882;28;20463;-65
2021/07/13 08:17:53;;;;;;;3.15;0.90;;;;;;;13.51;100.00;96217.81;4982430;28;20043;-65
2021/07/13 08:20:19;;;;;;;3.78;0.88;;;;;;;13.15;100.00;96171.91;4970416;28;20053;-66
2021/07/13 08:22:48;;;;;;;1.58;0.68;;;;;;;13.22;100.00;96142.81;4975960;28;20038;-66
2021/07/13 08:25:15;;;;;;;3.03;0.77;;;;;;;13.15;100.00;96174.66;4979246;28;20053;-64
2021/07/13 08:27:41;;;;;;;1.77;0.98;;;;;;;13.17;100.00;96166.78;4970828;28;20046;-67
2021/07/13 08:30:07;;;;;;;1.92;0.70;;;;;;;13.20;100.00;96148.72;4970842;28;20454;-64
2021/07/13 08:32:32;;;;;;;4.88;1.00;;;;;;;13.35;100.00;96166.00;4974182;28;20043;-65
2021/07/13 08:34:58;;;;;;;1.42;0.68;;;;;;;13.60;100.00;96168.66;4984584;28;20046;-65
2021/07/13 08:37:25;;;;;;;1.98;0.90;;;;;;;13.51;100.00;96155.31;4982064;28;20382;-65
2021/07/13 08:39:51;;;;;;;2.33;0.73;;;;;;;13.61;100.00;96133.66;4980264;28;20062;-64
2021/07/13 08:42:16;;;;;;;1.95;0.57;;;;;;;13.58;100.00;96140.75;4974519;28;20046;-63
2021/07/13 08:44:42;;;;;;;1.55;0.70;;;;;;;13.39;100.00;96136.50;4975142;28;20057;-64
2021/07/13 08:47:13;;;;;;;0.85;0.55;;;;;;;13.42;100.00;96126.69;4979151;28;20418;-63
2021/07/13 08:49:38;;;;;;;1.25;0.70;;;;;;;13.34;100.00;96145.97;4985616;28;20542;-63
2021/07/13 08:52:03;;;;;;;1.10;0.55;;;;;;;13.41;100.00;96144.34;4981700;28;20133;-62
2021/07/13 08:54:33;;;;;;;1.52;0.93;;;;;;;13.24;100.00;96173.47;4981945;28;20050;-63
2021/07/13 08:56:59;;;;;;;1.25;0.73;;;;;;;13.31;100.00;96171.50;4977098;28;20039;-64
2021/07/13 08:59:24;;;;;;;2.70;0.60;;;;;;;13.38;100.00;96159.72;4968949;28;20051;-63
2021/07/13 09:01:50;;;;;;;1.90;1.13;;;;;;;13.30;100.00;96167.16;4983063;28;20069;-63
2021/07/13 09:04:15;;;;;;;1.00;0.60;;;;;;;13.34;100.00;96189.97;4970519;28;20043;-65
2021/07/13 09:06:55;;;;;;;1.80;0.70;;;;;;;13.11;100.00;96242.63;4961513;28;20042;-66
2021/07/13 09:09:21;;;;;;;;;;;;;;;13.18;100.00;96266.56;4988516;28;20062;-65
2021/07/13 09:12:04;;;;;;;0.55;0.40;;;;;;;13.13;100.00;96287.00;4975226;28;19932;-64
2021/07/13 09:14:47;;;;;;;1.85;1.00;;;;;;;13.11;100.00;96300.34;4980657;28;20042;-65
2021/07/13 09:17:33;;;;;;;2.40;0.75;;;;;;;13.17;100.00;96295.25;4979559;28;20384;-65
2021/07/13 09:20:24;;;;;;;3.85;1.08;;;;;;;13.07;100.00;96268.53;4978643;28;20065;-65
2021/07/13 09:22:59;;;;;;;1.67;0.60;;;;;;;12.97;100.00;96257.16;4964700;28;20105;-64
2021/07/13 09:25:27;;;;;;;6.72;3.55;;;;;;;12.93;100.00;96272.88;4962544;28;20074;-65
2021/07/13 09:28:18;;;;;;;2.58;0.80;;;;;;;13.01;100.00;96290.91;4976145;28;20049;-66
2021/07/13 09:30:58;;;;;;;0.60;0.47;;;;;;;13.24;100.00;96272.47;4981535;28;20055;-65
2021/07/13 09:33:24;;;;;;;1.30;0.70;;;;;;;13.82;100.00;96256.66;4969942;28;20447;-65
2021/07/13 09:36:07;;;;;;;1.95;0.88;;;;;;;14.45;100.00;96270.50;4975842;28;20046;-65
2021/07/13 09:38:54;;;;;;;1.35;0.60;;;;;;;14.82;100.00;96263.59;4978132;28;20492;-65
2021/07/13 09:41:24;;;;;;;1.30;0.40;;;;;;;15.10;99.60;96252.34;4970952;28;20081;-65
2021/07/13 09:43:59;;;;;;;1.52;0.52;;;;;;;14.61;99.18;96261.78;4983928;28;20038;-64
2021/07/13 09:46:30;;;;;;;1.33;0.55;;;;;;;14.54;100.00;96260.59;4976911;28;20073;-63
2021/07/13 09:49:24;;;;;;;0.75;0.50;;;;;;;14.75;99.65;96250.66;4966575;28;20046;-63
2021/07/13 09:52:02;;;;;;;0.73;0.43;;;;;;;14.70;98.49;96251.88;4987209;28;20050;-63
2021/07/13 09:54:29;;;;;;;0.57;0.40;;;;;;;15.19;99.90;96248.34;4980859;28;20049;-63
2021/07/13 09:56:54;;;;;;;1.88;0.40;;;;;;;15.41;95.02;96246.97;4984933;28;20070;-63
2021/07/13 09:59:20;;;;;;;1.05;0.60;;;;;;;15.63;97.34;96260.53;4986454;28;20030;-64
2021/07/13 10:01:45;;;;;;;0.95;0.45;;;;;;;15.18;97.23;96261.34;4986349;28;20384;-64
2021/07/13 10:04:11;;;;;;;2.50;0.60;;;;;;;15.20;98.90;96267.25;4977118;28;20042;-63
2021/07/13 10:06:38;;;;;;;2.90;0.60;;;;;;;15.44;97.56;96265.44;4982540;28;20046;-64
2021/07/13 10:09:11;;;;;;;2.28;0.50;;;;;;;15.07;96.86;96263.41;4979602;28;20050;-63
2021/07/13 10:11:38;;;;;;;0.73;0.40;;;;;;;15.17;96.19;96273.56;4972772;28;20092;-64
2021/07/13 10:14:06;;;;;;;1.38;0.50;;;;;;;15.21;95.63;96290.88;4979226;28;20038;-62
2021/07/13 10:16:31;;;;;;;0.47;0.30;;;;;;;15.17;96.63;96303.13;4971693;28;20065;-64
2021/07/13 10:18:59;;;;;;;3.00;0.50;;;;;;;14.82;97.07;96307.69;4983191;28;20404;-64
2021/07/13 10:21:25;;;;;;;2.17;0.60;;;;;;;14.82;97.03;96333.31;4959198;28;20823;-64
2021/07/13 10:23:53;;;;;;;1.35;0.40;;;;;;;14.49;98.45;96351.97;4973860;28;20523;-63
2021/07/13 10:26:42;;;;;;;1.83;0.57;;;;;;;14.60;99.55;96346.41;4967587;28;20057;-64
2021/07/13 10:29:32;;;;;;;0.97;0.50;;;;;;;14.84;99.06;96327.41;4970634;28;20034;-63
2021/07/13 10:32:17;;;;;;;0.73;0.40;;;;;;;14.88;98.40;96304.13;4976847;28;20046;-63
2021/07/13 10:34:53;;;;;;;0.93;0.40;;;;;;;14.76;98.50;96274.28;4962846;28;20042;-64
2021/07/13 10:37:27;;;;;;;2.72;1.15;;;;;;;14.72;96.89;96260.50;4968037;28;20039;-63
2021/07/13 10:40:02;;;;;;;1.80;1.13;;;;;;;14.97;98.90;96267.03;4981938;28;20066;-64
2021/07/13 10:42:40;;;;;;;1.15;0.57;;;;;;;14.93;97.38;96247.78;4960875;28;20082;-64
2021/07/13 10:45:13;;;;;;;2.83;0.52;;;;;;;14.96;97.14;96248.91;4986940;28;20054;-62
2021/07/13 10:47:53;;;;;;;4.82;0.68;;;;;;;15.06;96.03;96246.06;4983428;28;20427;-65
2021/07/13 10:50:18;;;;;;;0.65;0.45;;;;;;;15.26;95.99;96251.81;4977678;28;20047;-64
2021/07/13 10:52:50;;;;;;;0.40;0.40;;;;;;;15.14;97.38;96252.31;4980822;28;20046;-67
2021/07/13 10:55:31;;;;;;;1.65;0.30;;;;;;;15.48;96.21;96263.44;4975105;28;20289;-64
2021/07/13 10:58:08;;;;;;;1.30;0.50;;;;;;;15.79;96.47;96249.75;4982258;28;20050;-65
2021/07/13 11:00:58;;;;;;;0.90;0.47;;;;;;;16.21;95.70;96255.16;4972022;28;20388;-63
2021/07/13 11:03:32;;;;;;;2.95;0.40;;;;;;;16.62;89.72;96265.25;4967969;28;21065;-65
2021/07/13 11:05:58;;;;;;;0.80;0.30;;;;;;;17.05;88.23;96283.19;4981896;28;20065;-65
2021/07/13 11:11:09;;;;;;;1.35;0.40;;;;;;;17.30;87.92;96300.19;4976764;28;20050;-62
2021/07/13 11:13:36;;;;;;;1.40;0.50;;;;;;;16.91;86.88;96303.59;4981932;28;20097;-63
2021/07/13 11:16:03;;;;;;;3.90;0.50;;;;;;;17.00;88.62;96321.22;4974847;28;20046;-61
2021/07/13 11:18:34;;;;;;;3.10;0.90;;;;;;;16.89;86.25;96328.09;4970189;28;20113;-62
2021/07/13 11:21:21;;;;;;;0.68;0.40;;;;;;;16.60;84.82;96329.25;4977048;28;20069;-64
2021/07/13 11:23:49;;;;;;;0.95;0.40;;;;;;;16.38;89.03;96330.72;4993966;28;20050;-63
2021/07/13 11:26:16;;;;;;;1.75;0.30;;;;;;;16.28;89.01;96329.66;4986775;28;20557;-64
2021/07/13 11:28:45;;;;;;;0.68;0.50;;;;;;;16.14;89.30;96336.13;4977679;28;20101;-62
2021/07/13 11:31:17;;;;;;;2.15;0.60;;;;;;;16.67;88.48;96350.47;4971280;28;20054;-62
2021/07/13 11:33:54;;;;;;;1.75;0.40;;;;;;;16.76;85.57;96356.31;4969029;28;20047;-63
2021/07/13 11:36:31;;;;;;;2.85;0.52;;;;;;;16.93;84.50;96353.75;4956044;28;20383;-64
2021/07/13 11:38:58;;;;;;;1.10;0.63;;;;;;;16.37;87.76;96348.50;4981257;28;20177;-63